x

Chivenor (03707) Weather Station

5:00am - Wed 10th Feb 2016 All times are GMT.

  • Wind
    29mph, 43mph gusts
  • Air Temp 44°f
  • Sea Pressure 996mb
  • Chivenor
  • Chivenor

More Historic Weather Station data

Upgrade to MSW Pro to gain access to the past 30 days of data for over 8000 Wavebouys and Weather Stations around the globe.

Join Pro

Comparision Forecast

View Surf forecast
   
Wed 02/10 5:00am 29 43 mph 996mb 44f
4:00am 31 43 mph 996mb 44f
3:00am 28 40 mph 996mb 44f
2:00am 30 45 mph 995mb 43f
1:00am 25 45 mph 995mb 42f
12:00am 30 45 mph 995mb 45f
Tue 02/09 11:00pm 31 47 mph 994mb 45f
10:00pm 36 56 mph 993mb 45f
9:00pm 38 53 mph 992mb 44f
7:00pm 30 48 mph 991mb 45f
6:00pm 23 48 mph 990mb 44f
4:00pm 28 40 mph 989mb 45f
3:00pm 26 36 mph 988mb 46f
2:00pm 26 38 mph 988mb 45f
1:00pm 25 38 mph 987mb 46f
Mon 02/08 5:00pm 39 55 mph 994mb 44f
4:00pm 38 56 mph 993mb 49f
3:00pm 39 60 mph 991mb 49f
2:00pm 44 66 mph 990mb 49f
1:00pm 47 71 mph 988mb 49f
12:00pm 44 64 mph 987mb 49f
11:00am 39 66 mph 986mb 48f
10:00am 46 68 mph 985mb 48f
9:00am 46 66 mph 985mb 46f
8:00am 44 64 mph 984mb 47f
7:00am 41 63 mph 983mb 45f
6:00am 43 59 mph 983mb 47f
5:00am 41 60 mph 983mb 47f
4:00am 36 56 mph 984mb 47f
3:00am 31 63 mph 984mb 45f
2:00am 33 52 mph 984mb 47f
1:00am 37 53 mph 984mb 48f
12:00am 28 64 mph 985mb 45f
Sun 02/07 11:00pm 38 52 mph 985mb 49f
10:00pm 29 46 mph 984mb 51f
9:00pm 36
mph
985mb 50f
8:00pm 29 54 mph 985mb 50f
7:00pm 37 53 mph 986mb 52f
6:00pm 24 40 mph 987mb 48f
5:00pm 21 30 mph 989mb 46f
4:00pm 18
mph
992mb 45f
3:00pm 16 31 mph 993mb 45f
2:00pm 19 38 mph 994mb 45f
1:00pm 26 38 mph 995mb 47f
12:00pm 28 36 mph 995mb 49f
11:00am 25 37 mph 995mb 48f
10:00am 19 39 mph 994mb 47f
9:00am 17 37 mph 993mb 46f
8:00am 24 39 mph 992mb 45f
7:00am 25 45 mph 991mb 45f
6:00am 32 47 mph 990mb 46f
5:00am 17 40 mph 989mb 45f
4:00am 15
mph
989mb 42f
3:00am 11 40 mph 989mb 41f
2:00am 23 41 mph 989mb 42f
1:00am 23 31 mph 988mb 44f
12:00am 13 38 mph 988mb 44f
Sat 02/06 11:00pm 22 30 mph 987mb 46f
10:00pm 19 33 mph 986mb 45f
9:00pm 18
mph
986mb 47f
8:00pm 9
mph
985mb 45f
7:00pm 9
mph
985mb 46f
6:00pm 22 29 mph 985mb 47f
5:00pm 14 36 mph 984mb 48f
4:00pm 17
mph
984mb 50f
2:00pm 18 33 mph 986mb 50f
1:00pm 29 43 mph 988mb 51f
12:00pm 8 30 mph 990mb 49f
11:00am 16 40 mph 992mb 48f
10:00am 26 39 mph 992mb 53f